createdAt,value
2018-06-05T00:00:33.967Z,18.20
2018-06-05T00:03:03.539Z,18.20
2018-06-05T00:05:33.036Z,18.10
2018-06-05T00:08:02.541Z,18.10
2018-06-05T00:13:01.067Z,18.20
2018-06-05T00:15:30.584Z,18.10
2018-06-05T00:18:00.166Z,18.20
2018-06-05T00:20:29.755Z,18.10
2018-06-05T00:25:28.173Z,18.10
2018-06-05T00:27:57.713Z,18.00
2018-06-05T00:30:27.883Z,18.00
2018-06-05T00:37:55.457Z,18.00
2018-06-05T00:42:53.863Z,18.10
2018-06-05T00:47:52.602Z,18.10
2018-06-05T00:50:22.088Z,18.10
2018-06-05T00:52:51.662Z,18.00
2018-06-05T00:55:21.202Z,18.00
2018-06-05T00:57:50.734Z,18.00
2018-06-05T01:00:20.308Z,18.10
2018-06-05T01:02:49.820Z,18.10
2018-06-05T01:05:19.349Z,18.10
2018-06-05T01:07:48.857Z,18.00
2018-06-05T01:10:18.407Z,18.10
2018-06-05T01:15:16.938Z,18.10
2018-06-05T01:17:46.524Z,18.20
2018-06-05T01:20:16.006Z,18.10
2018-06-05T01:22:45.566Z,18.10
2018-06-05T01:25:15.067Z,18.00
2018-06-05T01:27:45.145Z,18.00
2018-06-05T01:32:43.586Z,18.00
2018-06-05T01:35:13.118Z,18.00
2018-06-05T01:37:42.882Z,18.00
2018-06-05T01:40:12.389Z,18.00
2018-06-05T01:42:41.935Z,18.00
2018-06-05T01:45:11.459Z,18.10
2018-06-05T01:50:11.122Z,18.10
2018-06-05T01:52:40.622Z,18.00
2018-06-05T01:55:10.151Z,18.00
2018-06-05T01:57:39.635Z,18.10
2018-06-05T02:00:09.306Z,18.10
2018-06-05T02:05:07.714Z,18.10
2018-06-05T02:10:06.322Z,18.00
2018-06-05T02:12:35.854Z,18.00
2018-06-05T02:15:05.535Z,17.90
2018-06-05T02:17:35.346Z,17.80
2018-06-05T02:20:04.916Z,17.90
2018-06-05T02:22:34.915Z,18.00
2018-06-05T02:25:04.467Z,18.00
2018-06-05T02:27:34.474Z,18.00
2018-06-05T02:32:32.921Z,17.90
2018-06-05T02:35:02.508Z,17.90
2018-06-05T02:37:32.017Z,17.80
2018-06-05T02:40:01.497Z,17.90
2018-06-05T02:42:31.066Z,17.90
2018-06-05T02:45:00.583Z,17.90
2018-06-05T02:49:59.294Z,17.90
2018-06-05T02:54:57.766Z,18.00
2018-06-05T02:57:27.304Z,18.00
2018-06-05T02:59:56.837Z,17.90
2018-06-05T03:02:26.373Z,17.90
2018-06-05T03:09:04.891Z,17.90
2018-06-05T03:11:35.090Z,17.60
2018-06-05T03:14:15.178Z,17.60
2018-06-05T03:16:45.710Z,17.60
2018-06-05T03:19:15.445Z,17.60
2018-06-05T03:21:45.354Z,17.60
2018-06-05T03:24:42.879Z,17.60
2018-06-05T03:27:16.110Z,17.70
2018-06-05T03:29:45.617Z,17.60
2018-06-05T03:32:15.062Z,17.60
2018-06-05T03:34:44.461Z,17.60
2018-06-05T03:37:14.086Z,17.60
2018-06-05T03:39:43.535Z,17.60
2018-06-05T03:42:12.962Z,17.70
2018-06-05T03:47:11.277Z,17.70
2018-06-05T03:49:41.719Z,17.60
2018-06-05T03:52:11.695Z,17.70
2018-06-05T03:54:41.136Z,17.60
2018-06-05T03:57:10.631Z,17.60
2018-06-05T03:59:40.178Z,17.60
2018-06-05T04:02:09.598Z,17.60
2018-06-05T04:04:39.076Z,17.60
2018-06-05T04:07:09.005Z,17.60
2018-06-05T04:09:40.461Z,17.40
2018-06-05T04:14:38.823Z,17.50
2018-06-05T04:17:08.278Z,17.50
2018-06-05T04:22:06.652Z,17.50
2018-06-05T04:24:36.109Z,17.50
2018-06-05T04:27:06.528Z,17.50
2018-06-05T04:32:04.913Z,17.50
2018-06-05T04:34:34.321Z,17.50
2018-06-05T04:37:04.014Z,17.60
2018-06-05T04:42:02.300Z,17.60
2018-06-05T04:44:32.120Z,17.50
2018-06-05T04:54:28.609Z,17.30
2018-06-05T04:59:27.398Z,17.30
2018-06-05T05:01:56.801Z,17.30
2018-06-05T05:04:42.284Z,17.30
2018-06-05T05:07:11.774Z,17.20
2018-06-05T05:09:41.234Z,17.20
2018-06-05T05:12:10.626Z,17.20
2018-06-05T05:17:08.960Z,17.20
2018-06-05T05:19:39.670Z,17.30
2018-06-05T05:22:09.083Z,17.40
2018-06-05T05:24:38.741Z,17.40
2018-06-05T05:27:08.206Z,17.40
2018-06-05T05:29:37.594Z,17.30
2018-06-05T05:32:07.068Z,17.10
2018-06-05T05:37:05.507Z,17.10
2018-06-05T05:39:34.965Z,17.00
2018-06-05T05:47:02.281Z,16.80
2018-06-05T05:49:32.467Z,16.80
2018-06-05T05:52:01.903Z,16.70
2018-06-05T05:54:31.685Z,16.60
2018-06-05T05:57:01.272Z,16.70
2018-06-05T05:59:31.159Z,16.60
2018-06-05T06:02:00.622Z,16.50
2018-06-05T06:04:30.376Z,16.60
2018-06-05T06:06:59.970Z,16.70
2018-06-05T06:09:29.674Z,16.60
2018-06-05T06:11:59.150Z,16.70
2018-06-05T06:14:28.615Z,16.70
2018-06-05T06:16:58.023Z,16.70
2018-06-05T06:19:27.522Z,16.70
2018-06-05T06:21:56.925Z,16.50
2018-06-05T06:24:27.121Z,16.50
2018-06-05T06:26:56.627Z,16.50
2018-06-05T06:29:26.105Z,16.50
2018-06-05T06:34:24.360Z,16.60
2018-06-05T06:36:53.801Z,16.50
2018-06-05T06:41:52.136Z,16.60
2018-06-05T06:44:21.536Z,16.70
2018-06-05T06:46:50.952Z,16.80
2018-06-05T06:49:20.394Z,16.80
2018-06-05T06:51:49.854Z,16.90
2018-06-05T06:54:19.305Z,16.90
2018-06-05T06:56:48.851Z,16.80
2018-06-05T06:59:18.252Z,17.00
2018-06-05T07:01:47.703Z,17.10
2018-06-05T07:04:17.180Z,17.20
2018-06-05T07:06:46.591Z,17.20
2018-06-05T07:09:16.179Z,17.20
2018-06-05T07:11:45.606Z,17.20
2018-06-05T07:14:15.070Z,17.20
2018-06-05T07:16:44.627Z,17.40
2018-06-05T07:19:14.124Z,17.40
2018-06-05T07:21:43.572Z,17.50
2018-06-05T07:26:41.877Z,17.60
2018-06-05T07:31:40.198Z,17.70
2018-06-05T07:34:09.736Z,17.80
2018-06-05T07:36:39.126Z,17.80
2018-06-05T07:39:09.443Z,17.80
2018-06-05T07:41:39.398Z,17.70
2018-06-05T07:44:08.836Z,17.90
2018-06-05T07:46:38.260Z,18.00
2018-06-05T07:49:07.706Z,18.10
2018-06-05T07:51:37.176Z,18.20
2018-06-05T07:54:06.822Z,18.20
2018-06-05T07:56:36.220Z,18.20
2018-06-05T07:59:05.683Z,18.00
2018-06-05T08:01:35.146Z,18.10
2018-06-05T08:09:25.355Z,18.50
2018-06-05T08:11:55.256Z,18.50
2018-06-05T08:14:24.767Z,18.60
2018-06-05T08:16:54.246Z,18.70
2018-06-05T08:19:23.690Z,18.60
2018-06-05T08:21:53.467Z,18.70
2018-06-05T08:24:22.883Z,18.80
2018-06-05T08:26:53.925Z,19.00
2018-06-05T08:29:23.519Z,19.20
2018-06-05T08:31:52.925Z,19.30
2018-06-05T08:34:22.310Z,19.10
2018-06-05T08:36:51.777Z,18.90
2018-06-05T08:41:50.087Z,19.00
2018-06-05T08:44:19.536Z,19.10
2018-06-05T08:46:48.972Z,19.40
2018-06-05T08:49:18.412Z,19.50
2018-06-05T08:51:47.840Z,19.70
2018-06-05T08:54:17.435Z,19.90
2018-06-05T08:56:46.850Z,19.80
2018-06-05T08:59:16.517Z,19.80
2018-06-05T09:04:14.886Z,19.80
2018-06-05T09:06:44.367Z,19.90
2018-06-05T09:09:13.849Z,20.30
2018-06-05T09:11:43.335Z,20.60
2018-06-05T09:14:12.736Z,20.50
2018-06-05T09:16:42.265Z,20.70
2018-06-05T09:19:11.651Z,20.70
2018-06-05T09:21:41.058Z,20.70
2018-06-05T09:24:10.589Z,20.80
2018-06-05T09:26:40.001Z,20.90
2018-06-05T09:29:09.425Z,20.80
2018-06-05T09:31:38.877Z,20.90
2018-06-05T09:34:08.296Z,21.00
2018-06-05T09:36:37.733Z,21.10
2018-06-05T09:39:09.274Z,20.90
2018-06-05T09:41:38.761Z,20.90
2018-06-05T09:44:08.235Z,21.20
2018-06-05T09:49:06.550Z,21.50
2018-06-05T09:51:36.100Z,21.40
2018-06-05T09:54:05.541Z,21.40
2018-06-05T09:59:03.900Z,21.20
2018-06-05T10:01:33.309Z,21.80
2018-06-05T10:04:02.758Z,21.70
2018-06-05T10:06:32.182Z,22.00
2018-06-05T10:09:01.616Z,22.10
2018-06-05T10:11:31.096Z,22.50
2018-06-05T10:14:00.510Z,22.80
2018-06-05T10:16:29.951Z,22.90
2018-06-05T10:18:59.344Z,22.80
2018-06-05T10:21:29.148Z,22.60
2018-06-05T10:23:58.583Z,22.60
2018-06-05T10:26:28.003Z,22.50
2018-06-05T10:28:57.510Z,22.70
2018-06-05T10:31:26.909Z,22.80
2018-06-05T10:33:56.372Z,23.20
2018-06-05T10:36:25.784Z,23.60
2018-06-05T10:38:55.179Z,23.90
2018-06-05T10:41:24.617Z,23.70
2018-06-05T10:43:54.017Z,23.70
2018-06-05T10:46:23.569Z,24.20
2018-06-05T10:48:52.969Z,24.60
2018-06-05T10:51:22.386Z,24.40
2018-06-05T10:53:51.922Z,24.80
2018-06-05T10:56:21.340Z,24.60
2018-06-05T11:01:19.678Z,23.90
2018-06-05T11:03:49.086Z,24.00
2018-06-05T11:06:26.317Z,24.20
2018-06-05T11:08:55.890Z,24.00
2018-06-05T11:11:42.160Z,24.10
2018-06-05T11:14:28.134Z,24.30
2018-06-05T11:17:11.305Z,24.10
2018-06-05T11:22:27.774Z,23.80
2018-06-05T11:32:30.118Z,25.00
2018-06-05T11:34:59.513Z,25.30
2018-06-05T11:37:29.381Z,25.10
2018-06-05T11:39:58.773Z,24.70
2018-06-05T11:42:28.203Z,24.90
2018-06-05T11:44:57.659Z,24.90
2018-06-05T11:47:27.065Z,25.00
2018-06-05T11:49:56.610Z,25.10
2018-06-05T11:52:26.058Z,25.40
2018-06-05T11:54:55.771Z,25.90
2018-06-05T11:57:25.244Z,26.10
2018-06-05T11:59:55.848Z,25.80
2018-06-05T12:02:25.441Z,25.70
2018-06-05T12:04:55.139Z,25.70
2018-06-05T12:07:24.993Z,25.60
2018-06-05T12:09:54.408Z,25.60
2018-06-05T12:14:53.305Z,26.40
2018-06-05T12:17:22.710Z,26.80
2018-06-05T12:19:52.285Z,27.40
2018-06-05T12:22:21.982Z,27.80
2018-06-05T12:24:51.441Z,27.20
2018-06-05T12:29:49.763Z,26.70
2018-06-05T12:32:19.758Z,26.10
2018-06-05T12:39:47.342Z,26.00
2018-06-05T12:44:45.731Z,25.70
2018-06-05T12:47:15.151Z,26.40
2018-06-05T12:52:13.538Z,26.90
2018-06-05T12:54:42.975Z,27.00
2018-06-05T12:57:12.389Z,26.90
2018-06-05T12:59:41.817Z,26.40
2018-06-05T13:02:11.232Z,26.70
2018-06-05T13:04:40.686Z,27.40
2018-06-05T13:07:10.129Z,27.90
2018-06-05T13:09:39.592Z,27.80
2018-06-05T13:12:09.476Z,27.40
2018-06-05T13:14:41.108Z,27.30
2018-06-05T13:17:11.905Z,27.20
2018-06-05T13:19:41.311Z,25.90
2018-06-05T13:22:10.772Z,24.80
2018-06-05T13:24:40.195Z,25.00
2018-06-05T13:27:09.611Z,25.30
2018-06-05T13:29:40.338Z,25.50
2018-06-05T13:34:38.720Z,25.20
2018-06-05T13:39:37.631Z,26.00
2018-06-05T13:44:36.745Z,25.90
2018-06-05T13:49:35.848Z,25.40
2018-06-05T13:52:05.277Z,25.40
2018-06-05T13:54:35.157Z,25.50
2018-06-05T13:57:04.680Z,25.60
2018-06-05T14:02:03.459Z,25.80
2018-06-05T14:04:48.339Z,25.90
2018-06-05T14:10:00.841Z,26.40
2018-06-05T14:12:34.491Z,26.40
2018-06-05T14:17:33.300Z,25.90
2018-06-05T14:20:02.734Z,25.40
2018-06-05T14:22:32.435Z,25.30
2018-06-05T14:25:01.914Z,25.10
2018-06-05T14:27:31.562Z,25.30
2018-06-05T14:30:01.011Z,25.40
2018-06-05T14:33:01.553Z,25.30
2018-06-05T14:35:30.976Z,25.20
2018-06-05T14:38:00.441Z,24.90
2018-06-05T14:40:37.008Z,24.90
2018-06-05T14:43:06.749Z,24.70
2018-06-05T14:45:37.023Z,24.80
2018-06-05T14:48:06.555Z,24.70
2018-06-05T14:53:05.110Z,24.30
2018-06-05T14:55:34.632Z,24.00
2018-06-05T15:00:55.600Z,24.00
2018-06-05T15:03:46.906Z,24.30
2018-06-05T15:08:58.706Z,24.80
2018-06-05T15:11:33.994Z,25.10
2018-06-05T15:14:10.303Z,25.30
2018-06-05T15:16:44.118Z,25.30
2018-06-05T15:21:43.210Z,25.10
2018-06-05T15:24:13.405Z,24.90
2018-06-05T15:26:43.329Z,24.70
2018-06-05T15:29:13.171Z,24.70
2018-06-05T15:34:12.289Z,24.70
2018-06-05T15:36:42.204Z,25.00
2018-06-05T15:39:12.058Z,24.90
2018-06-05T15:41:41.956Z,24.80
2018-06-05T15:44:13.077Z,24.90
2018-06-05T15:46:43.120Z,24.90
2018-06-05T15:49:13.612Z,24.90
2018-06-05T15:54:34.683Z,24.60
2018-06-05T15:57:05.606Z,24.50
2018-06-05T15:59:41.098Z,24.40
2018-06-05T16:02:21.520Z,24.30
2018-06-05T16:04:51.572Z,24.20
2018-06-05T16:07:21.588Z,24.20
2018-06-05T16:09:51.393Z,24.10
2018-06-05T16:12:24.313Z,24.00
2018-06-05T16:14:56.163Z,23.90
2018-06-05T16:17:26.485Z,23.80
2018-06-05T16:22:27.501Z,23.80
2018-06-05T16:25:00.744Z,23.70
2018-06-05T16:27:37.118Z,23.50
2018-06-05T16:30:10.850Z,23.40
2018-06-05T16:32:45.922Z,23.40
2018-06-05T16:35:16.473Z,23.60
2018-06-05T16:40:16.683Z,23.70
2018-06-05T16:42:46.505Z,23.60
2018-06-05T16:45:16.530Z,23.30
2018-06-05T16:50:15.775Z,23.50
2018-06-05T16:52:45.730Z,23.60
2018-06-05T16:55:15.654Z,23.60
2018-06-05T16:57:45.584Z,23.50
2018-06-05T17:02:44.546Z,23.50
2018-06-05T17:05:14.559Z,23.30
2018-06-05T17:07:44.385Z,23.20
2018-06-05T17:10:14.261Z,23.10
2018-06-05T19:38:23.412Z,20.20
2018-06-05T19:40:52.944Z,20.30
2018-06-05T19:43:22.576Z,20.20
2018-06-05T19:45:52.283Z,20.20
2018-06-05T19:48:21.861Z,20.20
2018-06-05T19:50:51.394Z,20.10
2018-06-05T19:53:20.985Z,20.10
2018-06-05T19:55:50.625Z,20.00
2018-06-05T19:58:20.553Z,19.90
2018-06-05T20:03:19.267Z,19.80
2018-06-05T20:05:48.962Z,19.70
2018-06-05T20:10:47.839Z,19.50
2018-06-05T20:13:17.384Z,19.50
2018-06-05T20:18:24.894Z,19.30
2018-06-05T20:20:57.476Z,19.20
2018-06-05T20:26:37.611Z,19.10
2018-06-05T20:29:13.073Z,18.90
2018-06-05T20:31:42.674Z,18.90
2018-06-05T20:36:51.441Z,18.70
2018-06-05T20:39:21.338Z,18.70
2018-06-05T20:41:53.603Z,18.60
2018-06-05T20:44:23.308Z,18.60
2018-06-05T20:46:52.877Z,18.40
2018-06-05T20:49:22.571Z,18.40
2018-06-05T20:51:52.178Z,18.40
2018-06-05T20:54:24.295Z,18.40
2018-06-05T20:56:54.014Z,18.20
2018-06-05T20:59:23.628Z,18.20
2018-06-05T21:01:53.205Z,18.10
2018-06-05T21:04:22.811Z,18.10
2018-06-05T21:06:52.342Z,18.10
2018-06-05T21:09:23.619Z,18.00
2018-06-05T21:11:53.205Z,17.90
2018-06-05T21:14:22.872Z,17.90
2018-06-05T21:16:52.682Z,17.90
2018-06-05T21:19:22.295Z,17.80
2018-06-05T21:24:22.706Z,17.70
2018-06-05T21:26:52.373Z,17.70
2018-06-05T21:29:21.935Z,17.60
2018-06-05T21:31:51.587Z,17.50
2018-06-05T21:34:21.188Z,17.40
2018-06-05T21:36:50.831Z,17.40
2018-06-05T21:39:20.432Z,17.40
2018-06-05T21:41:50.519Z,17.30
2018-06-05T21:44:20.094Z,17.20
2018-06-05T21:46:49.703Z,17.20
2018-06-05T21:49:19.352Z,17.20
2018-06-05T21:51:48.906Z,17.20
2018-06-05T21:54:18.525Z,17.10
2018-06-05T21:56:48.114Z,17.00
2018-06-05T21:59:17.719Z,17.00
2018-06-05T22:01:47.293Z,17.00
2018-06-05T22:04:16.911Z,16.90
2018-06-05T22:06:46.499Z,16.80
2018-06-05T22:09:16.603Z,16.80
2018-06-05T22:11:46.149Z,16.70
2018-06-05T22:14:16.239Z,16.60
2018-06-05T22:16:45.889Z,16.50
2018-06-05T22:19:15.972Z,16.60
2018-06-05T22:21:45.650Z,16.60
2018-06-05T22:24:15.547Z,16.50
2018-06-05T22:26:45.181Z,16.50
2018-06-05T22:29:15.016Z,16.50
2018-06-05T22:31:44.708Z,16.40
2018-06-05T22:34:14.459Z,16.30
2018-06-05T22:36:44.184Z,16.30
2018-06-05T22:39:13.877Z,16.40
2018-06-05T22:41:43.545Z,16.20
2018-06-05T22:44:13.296Z,16.20
2018-06-05T22:46:43.458Z,16.20
2018-06-05T22:49:13.131Z,16.10
2018-06-05T22:51:42.957Z,16.10
2018-06-05T22:56:41.697Z,16.10
2018-06-05T22:59:11.451Z,16.00
2018-06-05T23:01:42.145Z,16.00
2018-06-05T23:04:11.962Z,15.90
2018-06-05T23:06:41.626Z,15.90
2018-06-05T23:11:40.382Z,15.80
2018-06-05T23:14:10.048Z,15.80
2018-06-05T23:16:39.775Z,15.80
2018-06-05T23:19:09.402Z,15.80
2018-06-05T23:21:39.176Z,15.80
2018-06-05T23:24:08.878Z,15.80
2018-06-05T23:29:07.988Z,15.70
2018-06-05T23:34:06.712Z,15.70
2018-06-05T23:36:36.549Z,15.60
2018-06-05T23:39:08.237Z,15.60
2018-06-05T23:41:37.951Z,15.60
2018-06-05T23:46:36.757Z,15.50
2018-06-05T23:49:06.439Z,15.50
2018-06-05T23:51:36.177Z,15.50
2018-06-05T23:56:35.109Z,15.40
2018-06-05T23:59:04.841Z,15.40
